createdAt,value
2024-01-30T00:00:05.011Z,3.269
2024-01-30T00:01:05.098Z,3.263
2024-01-30T00:02:05.084Z,3.267
2024-01-30T00:03:05.051Z,3.267
2024-01-30T00:04:05.099Z,3.260
2024-01-30T00:05:05.159Z,3.265
2024-01-30T00:06:05.130Z,3.265
2024-01-30T00:07:05.162Z,3.265
2024-01-30T00:08:05.137Z,3.262
2024-01-30T00:09:05.093Z,3.261
2024-01-30T00:10:05.192Z,3.257
2024-01-30T00:11:05.104Z,3.266
2024-01-30T00:12:05.104Z,3.267
2024-01-30T00:13:05.157Z,3.270
2024-01-30T00:14:05.141Z,3.277
2024-01-30T00:15:05.131Z,3.270
2024-01-30T00:16:05.196Z,3.266
2024-01-30T00:17:05.153Z,3.270
2024-01-30T00:18:05.203Z,3.261
2024-01-30T00:19:05.337Z,3.270
2024-01-30T00:20:05.222Z,3.275
2024-01-30T00:21:05.213Z,3.258
2024-01-30T00:22:05.333Z,3.270
2024-01-30T00:23:05.199Z,3.266
2024-01-30T00:24:05.211Z,3.258
2024-01-30T00:25:05.255Z,3.253
2024-01-30T00:26:05.211Z,3.262
2024-01-30T00:27:05.223Z,3.250
2024-01-30T00:28:05.319Z,3.254
2024-01-30T00:29:05.243Z,3.254
2024-01-30T00:30:05.273Z,3.261
2024-01-30T00:31:05.313Z,3.235
2024-01-30T00:32:05.272Z,3.245
2024-01-30T00:33:05.312Z,3.241
2024-01-30T00:34:05.345Z,3.237
2024-01-30T00:35:05.429Z,3.250
2024-01-30T00:36:05.303Z,3.245
2024-01-30T00:37:05.343Z,3.252
2024-01-30T00:38:05.300Z,3.250
2024-01-30T00:39:05.322Z,3.247
2024-01-30T00:40:05.388Z,3.246
2024-01-30T00:41:05.338Z,3.246
2024-01-30T00:42:05.347Z,3.241
2024-01-30T00:43:05.437Z,3.246
2024-01-30T00:44:05.365Z,3.243
2024-01-30T00:45:05.366Z,3.231
2024-01-30T00:46:05.460Z,3.236
2024-01-30T00:47:05.385Z,3.234
2024-01-30T00:48:05.466Z,3.236
2024-01-30T00:49:05.449Z,3.235
2024-01-30T00:50:05.449Z,3.223
2024-01-30T00:51:05.401Z,3.229
2024-01-30T00:52:05.476Z,3.226
2024-01-30T00:53:05.425Z,3.237
2024-01-30T00:54:05.443Z,3.230
2024-01-30T00:55:05.465Z,3.225
2024-01-30T00:56:05.457Z,3.229
2024-01-30T00:57:05.475Z,3.230
2024-01-30T00:58:05.527Z,3.232
2024-01-30T00:59:05.471Z,3.234
2024-01-30T01:00:05.489Z,3.226
2024-01-30T01:01:05.557Z,3.235
2024-01-30T01:02:05.533Z,3.231
2024-01-30T01:03:05.539Z,3.229
2024-01-30T01:04:05.624Z,3.227
2024-01-30T01:05:05.518Z,3.225
2024-01-30T01:06:05.694Z,3.221
2024-01-30T01:07:05.664Z,3.215
2024-01-30T01:08:05.580Z,3.219
2024-01-30T01:09:05.696Z,3.219
2024-01-30T01:10:05.594Z,3.219
2024-01-30T01:11:05.581Z,3.217
2024-01-30T01:12:05.580Z,3.218
2024-01-30T01:13:05.616Z,3.221
2024-01-30T01:14:05.588Z,3.218
2024-01-30T01:15:05.592Z,3.222
2024-01-30T01:16:05.664Z,3.215
2024-01-30T01:17:05.623Z,3.221
2024-01-30T01:18:05.746Z,3.221
2024-01-30T01:19:05.793Z,3.221
2024-01-30T01:20:05.664Z,3.217
2024-01-30T01:21:05.647Z,3.221
2024-01-30T01:22:05.690Z,3.216
2024-01-30T01:23:05.664Z,3.216
2024-01-30T01:24:05.674Z,3.218
2024-01-30T01:25:05.694Z,3.219
2024-01-30T01:26:05.692Z,3.205
2024-01-30T01:27:05.687Z,3.191
2024-01-30T01:28:05.695Z,3.197
2024-01-30T01:29:05.698Z,3.202
2024-01-30T01:30:05.710Z,3.197
2024-01-30T01:31:05.771Z,3.194
2024-01-30T01:32:05.739Z,3.184
2024-01-30T01:33:05.824Z,3.198
2024-01-30T01:34:05.904Z,3.189
2024-01-30T01:35:05.820Z,3.203
2024-01-30T01:36:05.768Z,3.195
2024-01-30T01:37:05.797Z,3.193
2024-01-30T01:38:05.778Z,3.186
2024-01-30T01:39:05.769Z,3.179
2024-01-30T01:40:05.823Z,3.185
2024-01-30T01:41:05.801Z,3.186
2024-01-30T01:42:05.792Z,3.191
2024-01-30T01:43:05.810Z,3.181
2024-01-30T01:44:05.815Z,3.187
2024-01-30T01:45:05.835Z,3.174
2024-01-30T01:46:05.914Z,3.173
2024-01-30T01:47:05.833Z,3.183
2024-01-30T01:48:05.917Z,3.180
2024-01-30T01:49:05.931Z,3.176
2024-01-30T01:50:06.029Z,3.177
2024-01-30T01:51:05.925Z,3.178
2024-01-30T01:52:05.897Z,3.175
2024-01-30T01:53:05.854Z,3.167
2024-01-30T01:54:05.859Z,3.170
2024-01-30T01:55:05.901Z,3.178
2024-01-30T01:56:05.895Z,3.180
2024-01-30T01:57:06.009Z,3.176
2024-01-30T01:58:05.988Z,3.167
2024-01-30T01:59:05.922Z,3.175
2024-01-30T02:00:05.935Z,3.181
2024-01-30T02:01:06.017Z,3.179
2024-01-30T02:02:06.093Z,3.179
2024-01-30T02:03:05.938Z,3.177
2024-01-30T02:04:06.031Z,3.180
2024-01-30T02:05:06.012Z,3.180
2024-01-30T02:06:05.961Z,3.182
2024-01-30T02:07:06.072Z,3.179
2024-01-30T02:08:06.260Z,3.180
2024-01-30T02:09:06.028Z,3.184
2024-01-30T02:10:06.042Z,3.181
2024-01-30T02:11:06.002Z,3.174
2024-01-30T02:12:06.021Z,3.172
2024-01-30T02:13:06.132Z,3.172
2024-01-30T02:14:06.032Z,3.172
2024-01-30T02:15:06.063Z,3.159
2024-01-30T02:16:06.091Z,3.163
2024-01-30T02:17:06.056Z,3.171
2024-01-30T02:18:06.085Z,3.172
2024-01-30T02:19:06.122Z,3.171
2024-01-30T02:20:06.218Z,3.166
2024-01-30T02:21:06.096Z,3.169
2024-01-30T02:22:06.119Z,3.169
2024-01-30T02:23:06.118Z,3.175
2024-01-30T02:24:06.152Z,3.158
2024-01-30T02:25:06.186Z,3.147
2024-01-30T02:26:06.138Z,3.149
2024-01-30T02:27:06.146Z,3.143
2024-01-30T02:28:06.167Z,3.146
2024-01-30T02:29:06.155Z,3.149
2024-01-30T02:30:06.151Z,3.155
2024-01-30T02:31:06.193Z,3.154
2024-01-30T02:32:06.171Z,3.152
2024-01-30T02:33:06.182Z,3.152
2024-01-30T02:34:06.292Z,3.142
2024-01-30T02:35:06.206Z,3.142
2024-01-30T02:36:06.208Z,3.166
2024-01-30T02:37:06.316Z,3.162
2024-01-30T02:38:06.219Z,3.171
2024-01-30T02:39:06.234Z,3.173
2024-01-30T02:40:06.299Z,3.174
2024-01-30T02:41:06.239Z,3.174
2024-01-30T02:42:06.239Z,3.174
2024-01-30T02:43:06.327Z,3.199
2024-01-30T02:44:06.253Z,3.158
2024-01-30T02:45:06.291Z,3.185
2024-01-30T02:46:06.342Z,3.187
2024-01-30T02:47:06.295Z,3.185
2024-01-30T02:48:06.344Z,3.187
2024-01-30T02:49:06.411Z,3.186
2024-01-30T02:50:06.504Z,3.192
2024-01-30T02:51:06.327Z,3.194
2024-01-30T02:52:06.421Z,3.197
2024-01-30T02:53:06.329Z,3.192
2024-01-30T02:54:06.333Z,3.195
2024-01-30T02:55:06.378Z,3.195
2024-01-30T02:56:06.333Z,3.195
2024-01-30T02:57:06.353Z,3.191
2024-01-30T02:58:06.395Z,3.189
2024-01-30T02:59:06.372Z,3.174
2024-01-30T03:00:06.397Z,3.172
2024-01-30T03:01:06.474Z,3.176
2024-01-30T03:02:06.569Z,3.181
2024-01-30T03:03:06.405Z,3.169
2024-01-30T03:04:06.514Z,3.177
2024-01-30T03:05:06.416Z,3.169
2024-01-30T03:06:06.438Z,3.186
2024-01-30T03:07:06.518Z,3.183
2024-01-30T03:08:06.494Z,3.161
2024-01-30T03:09:06.457Z,3.164
2024-01-30T03:10:06.458Z,3.164
2024-01-30T03:11:06.460Z,3.164
2024-01-30T03:12:07.622Z,3.164
2024-01-30T03:13:06.547Z,3.166
2024-01-30T03:14:06.505Z,3.184
2024-01-30T03:15:06.502Z,3.187
2024-01-30T03:16:06.531Z,3.196
2024-01-30T03:17:06.526Z,3.197
2024-01-30T03:18:06.535Z,3.197
2024-01-30T03:19:06.620Z,3.196
2024-01-30T03:20:06.585Z,3.190
2024-01-30T03:21:06.531Z,3.188
2024-01-30T03:22:06.578Z,3.190
2024-01-30T03:23:06.568Z,3.184
2024-01-30T03:24:06.573Z,3.184
2024-01-30T03:25:06.582Z,3.193
2024-01-30T03:26:06.589Z,3.192
2024-01-30T03:27:06.592Z,3.180
2024-01-30T03:28:06.701Z,3.164
2024-01-30T03:29:06.616Z,3.174
2024-01-30T03:30:06.614Z,3.178
2024-01-30T03:31:06.665Z,3.174
2024-01-30T03:32:06.627Z,3.170
2024-01-30T03:33:06.666Z,3.167
2024-01-30T03:34:06.732Z,3.170
2024-01-30T03:35:06.855Z,3.166
2024-01-30T03:36:06.673Z,3.170
2024-01-30T03:37:06.783Z,3.165
2024-01-30T03:38:06.694Z,3.169
2024-01-30T03:39:06.691Z,3.166
2024-01-30T03:40:06.811Z,3.170
2024-01-30T03:41:06.704Z,3.170
2024-01-30T03:42:06.719Z,3.172
2024-01-30T03:43:06.785Z,3.166
2024-01-30T03:44:06.721Z,3.172
2024-01-30T03:45:06.754Z,3.169
2024-01-30T03:46:06.786Z,3.153
2024-01-30T03:47:06.740Z,3.148
2024-01-30T03:48:06.817Z,3.154
2024-01-30T03:49:06.826Z,3.151
2024-01-30T03:50:06.917Z,3.130
2024-01-30T03:51:06.820Z,3.154
2024-01-30T03:52:06.867Z,3.152
2024-01-30T03:53:06.813Z,3.149
2024-01-30T03:54:06.812Z,3.133
2024-01-30T03:55:06.871Z,3.134
2024-01-30T03:56:06.829Z,3.129
2024-01-30T03:57:06.968Z,3.129
2024-01-30T03:58:06.901Z,3.125
2024-01-30T03:59:06.830Z,3.126
2024-01-30T04:00:06.850Z,3.122
2024-01-30T04:01:06.972Z,3.132
2024-01-30T04:02:07.233Z,3.132
2024-01-30T04:03:06.926Z,3.127
2024-01-30T04:04:07.047Z,3.144
2024-01-30T04:05:06.946Z,3.142
2024-01-30T04:06:06.963Z,3.142
2024-01-30T04:07:06.947Z,3.141
2024-01-30T04:08:06.911Z,3.147
2024-01-30T04:09:06.904Z,3.144
2024-01-30T04:10:07.156Z,3.141
2024-01-30T04:11:06.941Z,3.144
2024-01-30T04:12:06.920Z,3.149
2024-01-30T04:13:09.275Z,3.142
2024-01-30T04:14:06.952Z,3.136
2024-01-30T04:15:06.964Z,3.141
2024-01-30T04:16:07.008Z,3.138
2024-01-30T04:17:06.972Z,3.144
2024-01-30T04:18:07.035Z,3.140
2024-01-30T04:19:07.110Z,3.138
2024-01-30T04:20:07.124Z,3.140
2024-01-30T04:21:06.991Z,3.129
2024-01-30T04:22:07.019Z,3.134
2024-01-30T04:23:06.994Z,3.135
2024-01-30T04:24:07.001Z,3.132
2024-01-30T04:25:07.055Z,3.134
2024-01-30T04:26:07.025Z,3.140
2024-01-30T04:27:07.038Z,3.138
2024-01-30T04:28:07.110Z,3.145
2024-01-30T04:29:07.049Z,3.144
2024-01-30T04:30:07.048Z,3.144
2024-01-30T04:31:07.102Z,3.149
2024-01-30T04:32:07.066Z,3.147
2024-01-30T04:33:07.106Z,3.146
2024-01-30T04:34:07.182Z,3.148
2024-01-30T04:35:10.101Z,3.147
2024-01-30T04:36:07.071Z,3.148
2024-01-30T04:37:07.141Z,3.142
2024-01-30T04:38:07.107Z,3.134
2024-01-30T04:39:07.105Z,3.143
2024-01-30T04:40:07.147Z,3.146
2024-01-30T04:41:07.131Z,3.145
2024-01-30T04:42:09.659Z,3.147
2024-01-30T04:43:07.181Z,3.145
2024-01-30T04:44:07.148Z,3.143
2024-01-30T04:45:07.246Z,3.142
2024-01-30T04:46:07.221Z,3.147
2024-01-30T04:47:07.224Z,3.137
2024-01-30T04:48:07.238Z,3.145
2024-01-30T04:49:07.243Z,3.141
2024-01-30T04:50:07.212Z,3.147
2024-01-30T04:51:07.204Z,3.141
2024-01-30T04:52:07.239Z,3.147
2024-01-30T04:53:07.227Z,3.152
2024-01-30T04:54:07.254Z,3.147
2024-01-30T04:55:07.346Z,3.148
2024-01-30T04:56:07.258Z,3.148
2024-01-30T04:57:07.254Z,3.144
2024-01-30T04:58:07.320Z,3.141
2024-01-30T04:59:07.260Z,3.147
2024-01-30T05:00:07.342Z,3.140
2024-01-30T05:01:07.301Z,3.134
2024-01-30T05:02:07.336Z,3.143
2024-01-30T05:03:07.300Z,3.132
2024-01-30T05:04:07.383Z,3.130
2024-01-30T05:05:07.399Z,3.136
2024-01-30T05:06:07.334Z,3.131
2024-01-30T05:07:07.391Z,3.138
2024-01-30T05:08:07.327Z,3.127
2024-01-30T05:09:07.335Z,3.114
2024-01-30T05:10:07.591Z,3.123
2024-01-30T05:11:07.353Z,3.118
2024-01-30T05:12:07.359Z,3.125
2024-01-30T05:13:07.451Z,3.123
2024-01-30T05:14:07.361Z,3.123
2024-01-30T05:15:07.372Z,3.128
2024-01-30T05:16:07.405Z,3.130
2024-01-30T05:17:07.395Z,3.131
2024-01-30T05:18:07.494Z,3.132
2024-01-30T05:19:07.552Z,3.129
2024-01-30T05:20:07.621Z,3.114
2024-01-30T05:21:07.459Z,3.116
2024-01-30T05:22:07.559Z,3.124
2024-01-30T05:23:07.458Z,3.113
2024-01-30T05:24:07.466Z,3.124
2024-01-30T05:25:07.469Z,3.127
2024-01-30T05:26:07.467Z,3.124
2024-01-30T05:27:07.481Z,3.124
2024-01-30T05:28:07.510Z,3.128
2024-01-30T05:29:07.509Z,3.128
2024-01-30T05:30:07.512Z,3.130
2024-01-30T05:31:07.536Z,3.119
2024-01-30T05:32:07.525Z,3.119
2024-01-30T05:33:07.585Z,3.130
2024-01-30T05:34:07.669Z,3.124
2024-01-30T05:35:07.553Z,3.128
2024-01-30T05:36:07.561Z,3.142
2024-01-30T05:37:07.581Z,3.129
2024-01-30T05:38:07.583Z,3.132
2024-01-30T05:39:09.331Z,3.132
2024-01-30T05:40:07.611Z,3.141
2024-01-30T05:41:07.585Z,3.143
2024-01-30T05:42:07.591Z,3.137
2024-01-30T05:43:07.635Z,3.142
2024-01-30T05:44:07.611Z,3.138
2024-01-30T05:45:07.613Z,3.140
2024-01-30T05:46:07.647Z,3.142
2024-01-30T05:47:07.633Z,3.142
2024-01-30T05:48:07.681Z,3.145
2024-01-30T05:49:07.707Z,3.142
2024-01-30T05:50:07.720Z,3.141
2024-01-30T05:51:07.740Z,3.146
2024-01-30T05:52:07.746Z,3.142
2024-01-30T05:53:07.705Z,3.138
2024-01-30T05:54:07.674Z,3.142
2024-01-30T05:55:07.705Z,3.148
2024-01-30T05:56:07.686Z,3.133
2024-01-30T05:57:07.707Z,3.133
2024-01-30T05:58:07.760Z,3.135
2024-01-30T05:59:07.719Z,3.125
2024-01-30T06:00:07.734Z,3.137
2024-01-30T06:01:07.806Z,3.131
2024-01-30T06:02:07.959Z,3.142
2024-01-30T06:03:07.818Z,3.138
2024-01-30T06:04:07.843Z,3.136
2024-01-30T06:05:07.770Z,3.139
2024-01-30T06:06:07.752Z,3.136
2024-01-30T06:07:07.973Z,3.132
2024-01-30T06:08:07.818Z,3.130
2024-01-30T06:09:07.778Z,3.141
2024-01-30T06:10:07.840Z,3.140
2024-01-30T06:11:07.809Z,3.138
2024-01-30T06:12:07.840Z,3.137
2024-01-30T06:13:07.829Z,3.143
2024-01-30T06:14:07.849Z,3.145
2024-01-30T06:15:07.823Z,3.139
2024-01-30T06:16:07.847Z,3.148
2024-01-30T06:17:07.832Z,3.148
2024-01-30T06:18:07.866Z,3.146
2024-01-30T06:19:07.894Z,3.142
2024-01-30T06:20:07.957Z,3.145
2024-01-30T06:21:09.936Z,3.145
2024-01-30T06:22:07.894Z,3.144
2024-01-30T06:23:07.869Z,3.140
2024-01-30T06:24:07.880Z,3.151
2024-01-30T06:25:07.929Z,3.146
2024-01-30T06:26:07.884Z,3.140
2024-01-30T06:27:07.903Z,3.145
2024-01-30T06:28:07.926Z,3.144
2024-01-30T06:29:07.906Z,3.135
2024-01-30T06:30:07.921Z,3.130
2024-01-30T06:31:07.949Z,3.130
2024-01-30T06:32:07.939Z,3.135
2024-01-30T06:33:08.015Z,3.130
2024-01-30T06:34:08.056Z,3.125
2024-01-30T06:35:08.023Z,3.127
2024-01-30T06:36:07.973Z,3.122
2024-01-30T06:37:08.053Z,3.127
2024-01-30T06:38:07.989Z,3.133
2024-01-30T06:39:08.000Z,3.128
2024-01-30T06:40:08.042Z,3.127
2024-01-30T06:41:08.000Z,3.134
2024-01-30T06:42:08.055Z,3.131
2024-01-30T06:43:08.038Z,3.131
2024-01-30T06:44:08.036Z,3.131
2024-01-30T06:45:08.035Z,3.138
2024-01-30T06:46:08.100Z,3.126
2024-01-30T06:47:08.051Z,3.125
2024-01-30T06:48:08.060Z,3.130
2024-01-30T06:49:08.168Z,3.131
2024-01-30T06:50:08.104Z,3.143
2024-01-30T06:51:08.090Z,3.145
2024-01-30T06:52:08.218Z,3.144
2024-01-30T06:53:08.105Z,3.151
2024-01-30T06:54:08.094Z,3.152
2024-01-30T06:55:08.132Z,3.151
2024-01-30T06:56:08.115Z,3.150
2024-01-30T06:57:08.123Z,3.148
2024-01-30T06:58:08.156Z,3.161
2024-01-30T06:59:08.140Z,3.162
2024-01-30T07:00:08.151Z,3.158
2024-01-30T07:01:08.241Z,3.163
2024-01-30T07:02:08.335Z,3.155
2024-01-30T07:03:08.172Z,3.159
2024-01-30T07:04:08.270Z,3.153
2024-01-30T07:05:08.261Z,3.163
2024-01-30T07:06:08.245Z,3.178
2024-01-30T07:07:08.261Z,3.174
2024-01-30T07:08:08.200Z,3.168
2024-01-30T07:09:08.203Z,3.167
2024-01-30T07:10:08.233Z,3.166
2024-01-30T07:11:08.220Z,3.173
2024-01-30T07:12:08.255Z,3.165
2024-01-30T07:13:08.294Z,3.185
2024-01-30T07:14:08.252Z,3.175
2024-01-30T07:15:08.251Z,3.175
2024-01-30T07:16:08.353Z,3.171
2024-01-30T07:17:08.269Z,3.172
2024-01-30T07:18:08.319Z,3.175
2024-01-30T07:19:08.319Z,3.174
2024-01-30T07:20:08.400Z,3.177
2024-01-30T07:21:08.297Z,3.179
2024-01-30T07:22:08.396Z,3.173
2024-01-30T07:23:08.301Z,3.181
2024-01-30T07:24:08.325Z,3.173
2024-01-30T07:25:08.429Z,3.178
2024-01-30T07:26:08.352Z,3.177
2024-01-30T07:27:08.348Z,3.178
2024-01-30T07:28:08.387Z,3.181
2024-01-30T07:29:08.361Z,3.184
2024-01-30T07:30:08.385Z,3.181
2024-01-30T07:31:08.442Z,3.193
2024-01-30T07:32:08.388Z,3.194
2024-01-30T07:33:08.481Z,3.192
2024-01-30T07:34:08.508Z,3.200
2024-01-30T07:35:09.516Z,3.199
2024-01-30T07:36:08.416Z,3.196
2024-01-30T07:37:08.485Z,3.199
2024-01-30T07:38:08.458Z,3.194
2024-01-30T07:39:08.445Z,3.197
2024-01-30T07:40:08.502Z,3.204
2024-01-30T07:41:08.456Z,3.201
2024-01-30T07:42:08.461Z,3.202
2024-01-30T07:43:08.547Z,3.203
2024-01-30T07:44:08.476Z,3.208
2024-01-30T07:45:08.482Z,3.224
2024-01-30T07:46:08.493Z,3.222
2024-01-30T07:47:08.480Z,3.222
2024-01-30T07:48:08.548Z,3.227
2024-01-30T07:49:08.573Z,3.231
2024-01-30T07:50:08.573Z,3.229
2024-01-30T07:51:08.526Z,3.232
2024-01-30T07:52:08.644Z,3.236
2024-01-30T07:53:08.531Z,3.245
2024-01-30T07:54:08.581Z,3.248
2024-01-30T07:55:08.602Z,3.240
2024-01-30T07:56:08.564Z,3.272
2024-01-30T07:57:08.576Z,3.278
2024-01-30T07:58:08.606Z,3.273
2024-01-30T07:59:08.577Z,3.276
2024-01-30T08:00:08.572Z,3.297
2024-01-30T08:01:08.730Z,3.296
2024-01-30T08:02:08.643Z,3.301
2024-01-30T08:03:08.616Z,3.303
2024-01-30T08:04:08.691Z,3.310
2024-01-30T08:05:08.752Z,3.317
2024-01-30T08:06:08.677Z,3.327
2024-01-30T08:07:08.940Z,3.326
2024-01-30T08:08:08.658Z,3.323
2024-01-30T08:09:08.645Z,3.334
2024-01-30T08:10:08.674Z,3.339
2024-01-30T08:11:08.670Z,3.341
2024-01-30T08:12:08.680Z,3.332
2024-01-30T08:13:08.757Z,3.331
2024-01-30T08:14:08.687Z,3.337
2024-01-30T08:15:08.702Z,3.341
2024-01-30T08:16:10.267Z,3.339
2024-01-30T08:17:08.707Z,3.361
2024-01-30T08:18:08.758Z,3.377
2024-01-30T08:19:08.796Z,3.382
2024-01-30T08:20:08.909Z,3.385
2024-01-30T08:21:08.738Z,3.388
2024-01-30T08:22:08.782Z,3.399
2024-01-30T08:23:08.742Z,3.393
2024-01-30T08:24:08.741Z,3.391
2024-01-30T08:25:08.865Z,3.399
2024-01-30T08:26:08.774Z,3.405
2024-01-30T08:27:08.800Z,3.416
2024-01-30T08:28:08.872Z,3.420
2024-01-30T08:29:08.960Z,3.425
2024-01-30T08:30:08.837Z,3.422
2024-01-30T08:31:08.835Z,3.434
2024-01-30T08:32:08.848Z,3.434
2024-01-30T08:33:08.920Z,3.435
2024-01-30T08:34:09.007Z,3.440
2024-01-30T08:35:08.966Z,3.450
2024-01-30T08:36:08.872Z,3.448
2024-01-30T08:37:08.913Z,3.452
2024-01-30T08:38:08.856Z,3.450
2024-01-30T08:39:08.865Z,3.455
2024-01-30T08:40:08.943Z,3.467
2024-01-30T08:41:08.926Z,3.471
2024-01-30T08:42:08.896Z,3.461
2024-01-30T08:43:08.934Z,3.467
2024-01-30T08:44:08.908Z,3.478
2024-01-30T08:45:08.922Z,3.486
2024-01-30T08:46:09.009Z,3.492
2024-01-30T08:47:08.932Z,3.496
2024-01-30T08:48:09.003Z,3.518
2024-01-30T08:49:09.305Z,3.526
2024-01-30T08:50:09.036Z,3.539
2024-01-30T08:51:08.954Z,3.545
2024-01-30T08:52:09.008Z,3.559
2024-01-30T08:53:08.987Z,3.547
2024-01-30T08:54:08.985Z,3.561
2024-01-30T08:55:09.111Z,3.550
2024-01-30T08:56:09.000Z,3.568
2024-01-30T08:57:09.026Z,3.577
2024-01-30T08:58:09.087Z,3.581
2024-01-30T08:59:11.150Z,3.582
2024-01-30T09:00:09.033Z,3.589
2024-01-30T09:01:09.111Z,3.594
2024-01-30T09:03:09.054Z,3.595
2024-01-30T09:04:09.175Z,3.601
2024-01-30T09:05:09.108Z,3.599
2024-01-30T09:06:09.076Z,3.617
2024-01-30T09:07:09.181Z,3.614
2024-01-30T09:08:09.334Z,3.616
2024-01-30T09:09:09.104Z,3.627
2024-01-30T09:10:12.340Z,3.628
2024-01-30T09:11:09.119Z,3.643
2024-01-30T09:12:09.102Z,3.649
2024-01-30T09:13:09.155Z,3.656
2024-01-30T09:14:09.126Z,3.667
2024-01-30T09:15:09.130Z,3.663
2024-01-30T09:16:09.239Z,3.710
2024-01-30T09:17:09.151Z,3.726
2024-01-30T09:18:09.201Z,3.726
2024-01-30T09:19:09.251Z,3.728
2024-01-30T09:20:09.192Z,3.720
2024-01-30T09:21:09.179Z,3.737
2024-01-30T09:22:09.276Z,3.744
2024-01-30T09:23:09.208Z,3.746
2024-01-30T09:24:09.210Z,3.761
2024-01-30T09:25:09.282Z,3.772
2024-01-30T09:26:09.213Z,3.784
2024-01-30T09:27:09.225Z,3.787
2024-01-30T09:28:09.269Z,3.782
2024-01-30T09:29:09.236Z,3.811
2024-01-30T09:30:09.264Z,3.812
2024-01-30T09:31:09.351Z,3.812
2024-01-30T09:32:09.768Z,3.804
2024-01-30T09:33:09.325Z,3.812
2024-01-30T09:34:09.370Z,3.828
2024-01-30T09:35:09.474Z,3.830
2024-01-30T09:36:09.294Z,3.826
2024-01-30T09:37:09.351Z,3.827
2024-01-30T09:38:09.307Z,3.838
2024-01-30T09:39:09.306Z,3.821
2024-01-30T09:40:09.371Z,3.840
2024-01-30T09:41:09.354Z,3.840
2024-01-30T09:42:09.338Z,3.831
2024-01-30T09:43:09.392Z,3.832
2024-01-30T09:44:09.358Z,3.822
2024-01-30T09:45:09.392Z,3.833
2024-01-30T09:46:09.416Z,3.838
2024-01-30T09:47:09.385Z,3.849
2024-01-30T09:48:09.383Z,3.838
2024-01-30T09:49:09.434Z,3.844
2024-01-30T09:50:09.441Z,3.844
2024-01-30T09:51:09.388Z,3.837
2024-01-30T09:52:09.500Z,3.844
2024-01-30T09:53:09.452Z,3.841
2024-01-30T09:54:09.421Z,3.853
2024-01-30T09:55:09.472Z,3.838
2024-01-30T09:56:09.436Z,3.850
2024-01-30T09:57:09.447Z,3.845
2024-01-30T09:58:09.497Z,3.846
2024-01-30T09:59:09.460Z,3.839
2024-01-30T10:00:09.476Z,3.857
2024-01-30T10:01:09.594Z,3.860
2024-01-30T10:02:09.549Z,3.856
2024-01-30T10:03:09.479Z,3.866
2024-01-30T10:04:09.546Z,3.863
2024-01-30T10:05:09.546Z,3.864
2024-01-30T10:06:09.505Z,3.866
2024-01-30T10:07:09.584Z,3.858
2024-01-30T10:08:09.670Z,3.884
2024-01-30T10:09:09.541Z,3.872
2024-01-30T10:10:09.577Z,3.871
2024-01-30T10:11:09.552Z,3.880
2024-01-30T10:12:09.565Z,3.873
2024-01-30T10:13:09.595Z,3.880
2024-01-30T10:14:09.580Z,3.877
2024-01-30T10:15:09.576Z,3.884
2024-01-30T10:16:09.596Z,3.892
2024-01-30T10:17:17.136Z,3.861
2024-01-30T10:18:09.612Z,3.866
2024-01-30T10:19:09.702Z,3.867
2024-01-30T10:20:09.797Z,3.893
2024-01-30T10:21:09.630Z,3.908
2024-01-30T10:22:09.666Z,3.891
2024-01-30T10:23:09.647Z,3.884
2024-01-30T10:24:09.644Z,3.891
2024-01-30T10:25:09.720Z,3.889
2024-01-30T10:26:09.652Z,3.891
2024-01-30T10:27:09.669Z,3.897
2024-01-30T10:28:09.768Z,3.898
2024-01-30T10:29:09.672Z,3.905
2024-01-30T10:30:09.679Z,3.897
2024-01-30T10:31:09.700Z,3.912
2024-01-30T10:32:09.702Z,3.915
2024-01-30T10:33:09.913Z,3.932
2024-01-30T10:34:16.793Z,3.932
2024-01-30T10:35:09.799Z,3.921
2024-01-30T10:36:09.739Z,3.924
2024-01-30T10:37:09.777Z,3.922
2024-01-30T10:38:09.738Z,3.927
2024-01-30T10:39:09.747Z,3.959
2024-01-30T10:40:09.796Z,3.946
2024-01-30T10:41:09.754Z,3.952
2024-01-30T10:42:09.776Z,3.959
2024-01-30T10:43:09.836Z,3.947
2024-01-30T10:44:09.883Z,3.961
2024-01-30T10:45:10.121Z,3.975
2024-01-30T10:46:09.918Z,3.998
2024-01-30T10:47:10.014Z,4.007
2024-01-30T10:48:10.055Z,3.997
2024-01-30T10:49:09.946Z,3.995
2024-01-30T10:50:10.094Z,4.001
2024-01-30T10:51:09.856Z,3.998
2024-01-30T10:52:09.907Z,4.007
2024-01-30T10:53:09.852Z,4.014
2024-01-30T10:54:09.859Z,4.017
2024-01-30T10:55:09.901Z,4.020
2024-01-30T10:56:09.868Z,4.026
2024-01-30T10:57:09.880Z,4.024
2024-01-30T10:58:09.939Z,4.008
2024-01-30T10:59:12.158Z,4.014
2024-01-30T11:00:09.917Z,4.019
2024-01-30T11:01:10.047Z,4.006
2024-01-30T11:02:10.039Z,4.030
2024-01-30T11:03:09.931Z,4.038
2024-01-30T11:04:10.042Z,4.035
2024-01-30T11:05:10.033Z,4.028
2024-01-30T11:06:09.998Z,4.019
2024-01-30T11:07:09.989Z,4.019
2024-01-30T11:08:09.962Z,4.026
2024-01-30T11:09:09.969Z,4.020
2024-01-30T11:10:10.037Z,4.042
2024-01-30T11:11:09.995Z,4.039
2024-01-30T11:12:09.990Z,4.041
2024-01-30T11:13:10.061Z,4.042
2024-01-30T11:14:10.038Z,4.046
2024-01-30T11:15:10.178Z,4.040
2024-01-30T11:16:10.060Z,4.033
2024-01-30T11:17:10.051Z,4.020
2024-01-30T11:18:10.148Z,4.043
2024-01-30T11:19:10.163Z,4.047
2024-01-30T11:20:10.064Z,4.040
2024-01-30T11:21:10.056Z,4.053
2024-01-30T11:22:12.573Z,4.046
2024-01-30T11:23:10.060Z,4.041
2024-01-30T11:24:10.075Z,4.116
2024-01-30T11:25:10.128Z,4.109
2024-01-30T11:26:10.087Z,4.123
2024-01-30T11:27:10.095Z,4.119
2024-01-30T11:28:10.145Z,4.110
2024-01-30T11:29:10.120Z,4.116
2024-01-30T11:30:10.140Z,4.110
2024-01-30T11:31:10.187Z,4.097
2024-01-30T11:32:10.126Z,4.105
2024-01-30T11:33:10.448Z,4.105
2024-01-30T11:34:10.254Z,4.102
2024-01-30T11:35:10.355Z,4.110
2024-01-30T11:36:10.156Z,4.136
2024-01-30T11:37:10.236Z,4.139
2024-01-30T11:38:10.169Z,4.139
2024-01-30T11:39:10.181Z,4.122
2024-01-30T11:40:10.220Z,4.121
2024-01-30T11:41:10.207Z,4.114
2024-01-30T11:42:10.209Z,4.108
2024-01-30T11:43:10.464Z,4.108
2024-01-30T11:44:10.215Z,4.110
2024-01-30T11:45:10.200Z,4.104
2024-01-30T11:46:10.266Z,4.090
2024-01-30T11:47:10.235Z,4.103
2024-01-30T11:48:10.330Z,4.107
2024-01-30T11:49:10.331Z,4.099
2024-01-30T11:50:10.348Z,4.105
2024-01-30T11:51:10.260Z,4.105
2024-01-30T11:52:10.340Z,4.083
2024-01-30T11:53:10.274Z,4.087
2024-01-30T11:54:10.284Z,4.094
2024-01-30T11:55:10.316Z,4.093
2024-01-30T11:56:10.308Z,4.097
2024-01-30T11:57:10.306Z,4.103
2024-01-30T11:58:10.340Z,4.106
2024-01-30T11:59:10.312Z,4.105
2024-01-30T12:00:10.346Z,4.075
2024-01-30T12:01:10.455Z,4.079
2024-01-30T12:02:10.474Z,4.073
2024-01-30T12:03:10.344Z,4.069
2024-01-30T12:04:11.451Z,4.082
2024-01-30T12:05:10.360Z,4.088
2024-01-30T12:06:10.420Z,4.095
2024-01-30T12:07:10.446Z,4.098
2024-01-30T12:08:10.407Z,4.091
2024-01-30T12:09:10.388Z,4.088
2024-01-30T12:10:10.432Z,4.088
2024-01-30T12:11:10.400Z,4.098
2024-01-30T12:12:10.394Z,4.096
2024-01-30T12:13:10.442Z,4.113
2024-01-30T12:14:10.410Z,4.118
2024-01-30T12:15:10.427Z,4.119
2024-01-30T12:16:10.530Z,4.113
2024-01-30T12:17:10.450Z,4.089
2024-01-30T12:18:10.536Z,4.092
2024-01-30T12:19:10.511Z,4.084
2024-01-30T12:20:10.718Z,4.082
2024-01-30T12:21:10.452Z,4.077
2024-01-30T12:22:10.530Z,4.092
2024-01-30T12:23:10.468Z,4.092
2024-01-30T12:24:10.507Z,4.086
2024-01-30T12:25:10.504Z,4.095
2024-01-30T12:26:10.506Z,4.104
2024-01-30T12:27:10.508Z,4.090
2024-01-30T12:28:10.579Z,4.058
2024-01-30T12:29:10.534Z,4.053
2024-01-30T12:30:10.534Z,4.054
2024-01-30T12:31:10.591Z,4.055
2024-01-30T12:32:10.548Z,4.054
2024-01-30T12:33:10.576Z,4.063
2024-01-30T12:34:10.640Z,4.067
2024-01-30T12:35:10.744Z,4.076
2024-01-30T12:36:10.658Z,4.075
2024-01-30T12:37:10.595Z,4.079
2024-01-30T12:38:10.594Z,4.076
2024-01-30T12:39:10.600Z,4.072
2024-01-30T12:40:10.880Z,4.079
2024-01-30T12:41:10.624Z,4.096
2024-01-30T12:42:10.631Z,4.073
2024-01-30T12:43:10.670Z,4.076
2024-01-30T12:44:10.653Z,4.082
2024-01-30T12:45:10.664Z,4.086
2024-01-30T12:46:10.770Z,4.079
2024-01-30T12:47:10.676Z,4.090
2024-01-30T12:48:10.771Z,4.088
2024-01-30T12:49:10.768Z,4.089
2024-01-30T12:50:10.702Z,4.073
2024-01-30T12:51:10.700Z,4.093
2024-01-30T12:52:10.781Z,4.104
2024-01-30T12:53:10.727Z,4.104